Anafi, Greece
Current Conditions -  °F | °C
As of 8:50 PM on Monday 24 Nov 2014 (Local Time) from LGSR Reporting Station
Broken Clouds Broken Clouds  
Wind Chill: 57°   Ceiling: 2500
Heat Index: 57°   Visibility: 6mi
Dew Point: 43°   Wind: 18mph
Humidity: 59%   Direction: 330°NNW
Pressure: 30.09"   Gusts: 30mph
Location:  36.35°N, 25.77°E
Report Text: LGSR 241750Z 33016G26KT 9999 FEW020 BKN025 14/06 Q1019
Loading
Personal Weather Stations






























Interactive Weather Map New forecast layout! Learn more

10-Day Weather Forecast

Advertisements
Track Severe Weather on mobile